createdAt,value
2023-04-10T00:00:38.432Z,8.20
2023-04-10T00:03:05.725Z,8.27
2023-04-10T00:05:33.066Z,8.90
2023-04-10T00:08:01.078Z,8.45
2023-04-10T00:10:30.621Z,8.05
2023-04-10T00:12:58.524Z,8.55
2023-04-10T00:15:25.280Z,7.60
2023-04-10T00:17:55.482Z,7.80
2023-04-10T00:20:23.075Z,8.57
2023-04-10T00:22:49.974Z,8.25
2023-04-10T00:25:19.254Z,7.25
2023-04-10T00:27:46.328Z,7.60
2023-04-10T00:30:12.918Z,7.93
2023-04-10T00:32:39.830Z,7.57
2023-04-10T00:35:07.246Z,7.35
2023-04-10T00:37:34.295Z,8.00
2023-04-10T00:40:01.311Z,7.28
2023-04-10T00:42:28.325Z,7.70
2023-04-10T00:44:54.943Z,7.30
2023-04-10T00:47:21.967Z,7.22
2023-04-10T00:49:48.698Z,7.50
2023-04-10T00:52:15.830Z,7.20
2023-04-10T00:54:42.605Z,7.82
2023-04-10T00:57:09.285Z,7.38
2023-04-10T00:59:36.489Z,7.28
2023-04-10T01:02:03.647Z,7.40
2023-04-10T01:04:32.384Z,7.68
2023-04-10T01:07:01.695Z,7.18
2023-04-10T01:09:47.222Z,7.60
2023-04-10T01:12:29.206Z,7.78
2023-04-10T01:15:04.813Z,7.18
2023-04-10T01:17:39.046Z,7.30
2023-04-10T01:20:08.725Z,7.60
2023-04-10T01:22:46.081Z,7.40
2023-04-10T01:25:13.001Z,6.90
2023-04-10T01:27:58.193Z,6.82
2023-04-10T01:30:24.921Z,7.20
2023-04-10T01:32:53.969Z,6.88
2023-04-10T01:35:21.706Z,7.32
2023-04-10T01:37:48.721Z,7.30
2023-04-10T01:40:16.967Z,6.75
2023-04-10T01:42:45.499Z,6.80
2023-04-10T01:45:14.174Z,6.57
2023-04-10T01:47:41.040Z,6.70
2023-04-10T01:50:08.029Z,7.25
2023-04-10T01:52:35.710Z,6.63
2023-04-10T01:55:03.046Z,6.93
2023-04-10T01:57:31.811Z,6.95
2023-04-10T01:59:58.960Z,7.40
2023-04-10T02:02:26.092Z,7.25
2023-04-10T02:04:52.986Z,7.22
2023-04-10T02:07:29.289Z,6.57
2023-04-10T02:10:02.675Z,6.68
2023-04-10T02:12:34.673Z,6.47
2023-04-10T02:15:02.778Z,6.68
2023-04-10T02:17:30.341Z,6.60
2023-04-10T02:19:58.271Z,6.78
2023-04-10T02:22:25.975Z,6.45
2023-04-10T02:24:53.446Z,7.28
2023-04-10T02:27:34.542Z,6.50
2023-04-10T02:30:02.770Z,6.10
2023-04-10T02:32:29.865Z,6.20
2023-04-10T02:34:59.898Z,6.57
2023-04-10T02:37:26.576Z,6.13
2023-04-10T02:39:54.751Z,6.40
2023-04-10T02:42:21.414Z,6.53
2023-04-10T02:44:48.137Z,6.50
2023-04-10T02:47:14.848Z,6.43
2023-04-10T02:49:41.932Z,6.40
2023-04-10T02:52:08.648Z,6.03
2023-04-10T02:54:35.711Z,6.68
2023-04-10T02:57:02.646Z,6.32
2023-04-10T02:59:29.124Z,6.10
2023-04-10T03:01:56.196Z,6.50
2023-04-10T03:04:23.279Z,6.00
2023-04-10T03:06:50.145Z,6.28
2023-04-10T03:09:17.104Z,6.30
2023-04-10T03:11:43.893Z,6.38
2023-04-10T03:14:10.497Z,6.65
2023-04-10T03:16:37.261Z,6.93
2023-04-10T03:19:04.769Z,6.43
2023-04-10T03:21:34.374Z,6.30
2023-04-10T03:24:01.418Z,6.13
2023-04-10T03:26:28.862Z,5.65
2023-04-10T03:28:55.487Z,6.38
2023-04-10T03:31:22.408Z,6.05
2023-04-10T03:33:49.292Z,5.90
2023-04-10T03:36:16.413Z,5.95
2023-04-10T03:38:43.332Z,5.82
2023-04-10T03:41:10.004Z,6.30
2023-04-10T03:43:36.641Z,6.18
2023-04-10T03:46:03.387Z,5.63
2023-04-10T03:48:30.786Z,6.15
2023-04-10T03:50:57.606Z,6.70
2023-04-10T03:53:27.436Z,6.43
2023-04-10T03:55:57.274Z,6.43
2023-04-10T03:58:23.918Z,6.22
2023-04-10T04:00:50.559Z,6.32
2023-04-10T04:03:17.469Z,6.07
2023-04-10T04:05:44.328Z,6.18
2023-04-10T04:08:11.009Z,5.88
2023-04-10T04:10:37.678Z,6.20
2023-04-10T04:13:04.256Z,6.50
2023-04-10T04:15:31.011Z,5.72
2023-04-10T04:17:57.978Z,5.60
2023-04-10T04:20:24.700Z,6.05
2023-04-10T04:22:51.553Z,5.65
2023-04-10T04:25:19.970Z,5.72
2023-04-10T04:27:46.617Z,6.28
2023-04-10T04:30:13.320Z,6.35
2023-04-10T04:32:40.092Z,5.72
2023-04-10T04:35:07.269Z,6.15
2023-04-10T04:37:33.906Z,6.07
2023-04-10T04:40:00.659Z,6.20
2023-04-10T04:42:27.503Z,5.50
2023-04-10T04:44:54.161Z,5.68
2023-04-10T04:47:23.173Z,5.50
2023-04-10T04:49:50.205Z,5.18
2023-04-10T04:52:16.952Z,5.60
2023-04-10T04:54:44.225Z,5.70
2023-04-10T04:57:14.104Z,5.63
2023-04-10T04:59:40.984Z,5.82
2023-04-10T05:02:08.040Z,6.32
2023-04-10T05:04:35.250Z,5.72
2023-04-10T05:07:02.242Z,5.97
2023-04-10T05:09:29.200Z,5.47
2023-04-10T05:11:56.134Z,5.80
2023-04-10T05:14:23.106Z,5.43
2023-04-10T05:16:50.049Z,5.38
2023-04-10T05:19:17.301Z,5.55
2023-04-10T05:21:44.261Z,5.40
2023-04-10T05:24:11.620Z,5.13
2023-04-10T05:26:38.366Z,4.82
2023-04-10T05:29:05.446Z,5.38
2023-04-10T05:31:32.477Z,4.85
2023-04-10T05:33:59.523Z,4.82
2023-04-10T05:36:26.989Z,5.25
2023-04-10T05:38:54.256Z,5.32
2023-04-10T05:41:21.405Z,5.30
2023-04-10T05:43:48.222Z,5.38
2023-04-10T05:46:15.430Z,4.57
2023-04-10T05:48:45.398Z,4.90
2023-04-10T05:51:12.445Z,5.20
2023-04-10T05:53:40.305Z,4.38
2023-04-10T05:56:07.208Z,4.63
2023-04-10T05:58:36.826Z,4.93
2023-04-10T06:01:03.875Z,4.97
2023-04-10T06:03:31.252Z,4.85
2023-04-10T06:05:59.130Z,4.45
2023-04-10T06:08:26.157Z,4.40
2023-04-10T06:10:53.229Z,5.03
2023-04-10T06:13:20.276Z,4.72
2023-04-10T06:15:46.861Z,4.35
2023-04-10T06:18:13.873Z,4.30
2023-04-10T06:20:40.577Z,4.60
2023-04-10T06:23:07.573Z,3.95
2023-04-10T06:25:34.769Z,4.47
2023-04-10T06:28:04.845Z,4.15
2023-04-10T06:30:34.237Z,4.28
2023-04-10T06:33:01.286Z,4.38
2023-04-10T06:35:28.234Z,4.18
2023-04-10T06:37:55.107Z,4.05
2023-04-10T06:40:21.866Z,3.85
2023-04-10T06:42:48.704Z,4.25
2023-04-10T06:45:15.744Z,3.95
2023-04-10T06:47:42.588Z,3.95
2023-04-10T06:50:09.762Z,3.80
2023-04-10T06:52:39.593Z,4.05
2023-04-10T06:55:06.744Z,3.92
2023-04-10T06:57:33.593Z,3.75
2023-04-10T07:00:00.770Z,3.50
2023-04-10T07:02:27.990Z,3.90
2023-04-10T07:04:54.840Z,3.78
2023-04-10T07:07:22.014Z,3.80
2023-04-10T07:09:50.277Z,3.88
2023-04-10T07:12:17.243Z,3.80
2023-04-10T07:14:44.370Z,3.40
2023-04-10T07:17:11.752Z,3.58
2023-04-10T07:19:38.614Z,3.55
2023-04-10T07:22:05.254Z,3.47
2023-04-10T07:24:32.632Z,3.95
2023-04-10T07:27:00.898Z,3.25
2023-04-10T07:29:28.261Z,3.70
2023-04-10T07:31:55.617Z,3.38
2023-04-10T07:34:22.661Z,3.70
2023-04-10T07:36:49.908Z,3.55
2023-04-10T07:39:18.269Z,3.50
2023-04-10T07:41:45.591Z,3.47
2023-04-10T07:44:13.445Z,3.80
2023-04-10T07:46:40.708Z,3.17
2023-04-10T07:49:08.889Z,3.45
2023-04-10T07:51:35.907Z,3.60
2023-04-10T07:54:03.620Z,3.72
2023-04-10T07:56:31.791Z,3.53
2023-04-10T07:59:02.201Z,3.05
2023-04-10T08:01:29.065Z,3.63
2023-04-10T08:03:59.017Z,3.20
2023-04-10T08:06:26.059Z,3.00
2023-04-10T08:08:55.886Z,3.15
2023-04-10T08:11:25.928Z,3.40
2023-04-10T08:13:53.041Z,3.13
2023-04-10T08:16:22.150Z,3.58
2023-04-10T08:18:48.703Z,3.58
2023-04-10T08:21:15.722Z,3.78
2023-04-10T08:23:42.479Z,3.60
2023-04-10T08:26:09.174Z,3.42
2023-04-10T08:28:37.132Z,3.38
2023-04-10T08:31:03.930Z,3.30
2023-04-10T08:33:31.150Z,3.38
2023-04-10T08:35:58.415Z,3.60
2023-04-10T08:38:27.774Z,3.60
2023-04-10T08:40:55.131Z,3.10
2023-04-10T08:43:21.767Z,3.40
2023-04-10T08:45:49.028Z,3.25
2023-04-10T08:48:16.596Z,3.33
2023-04-10T08:50:45.542Z,3.40
2023-04-10T08:53:13.542Z,3.33
2023-04-10T08:55:41.146Z,3.60
2023-04-10T08:58:08.412Z,3.55
2023-04-10T09:00:38.792Z,3.60
2023-04-10T09:03:15.536Z,3.60
2023-04-10T09:05:42.379Z,3.80
2023-04-10T09:08:09.970Z,3.53
2023-04-10T09:10:36.732Z,3.83
2023-04-10T09:13:03.541Z,3.88
2023-04-10T09:15:30.219Z,3.70
2023-04-10T09:17:56.878Z,4.03
2023-04-10T09:20:24.537Z,3.75
2023-04-10T09:22:51.640Z,3.95
2023-04-10T09:25:31.725Z,3.97
2023-04-10T09:28:11.170Z,3.38
2023-04-10T09:30:41.815Z,3.67
2023-04-10T09:33:31.019Z,3.50
2023-04-10T09:35:58.588Z,3.80
2023-04-10T09:38:25.964Z,3.67
2023-04-10T09:40:58.765Z,3.78
2023-04-10T09:43:26.599Z,3.60
2023-04-10T09:45:57.602Z,3.97
2023-04-10T09:48:25.052Z,4.03
2023-04-10T09:50:52.108Z,4.65
2023-04-10T09:53:20.222Z,4.13
2023-04-10T09:55:48.115Z,3.65
2023-04-10T09:58:15.938Z,3.92
2023-04-10T10:00:43.716Z,4.05
2023-04-10T10:03:12.228Z,4.30
2023-04-10T10:05:43.384Z,4.10
2023-04-10T10:08:14.743Z,4.00
2023-04-10T10:11:04.366Z,3.95
2023-04-10T10:13:48.089Z,4.00
2023-04-10T10:16:19.601Z,4.20
2023-04-10T10:18:54.555Z,3.93
2023-04-10T10:21:22.516Z,4.25
2023-04-10T10:23:54.072Z,4.28
2023-04-10T10:26:23.872Z,4.35
2023-04-10T10:28:54.005Z,4.00
2023-04-10T10:31:22.719Z,4.47
2023-04-10T10:33:52.300Z,4.85
2023-04-10T10:36:20.232Z,4.18
2023-04-10T10:39:07.237Z,4.07
2023-04-10T10:41:41.106Z,4.80
2023-04-10T10:44:27.608Z,4.57
2023-04-10T10:47:07.745Z,4.70
2023-04-10T10:49:53.851Z,5.10
2023-04-10T10:52:39.548Z,4.68
2023-04-10T10:55:35.373Z,5.22
2023-04-10T10:58:06.291Z,4.90
2023-04-10T11:00:51.633Z,5.97
2023-04-10T11:03:18.519Z,5.57
2023-04-10T11:05:52.406Z,5.43
2023-04-10T11:08:45.209Z,5.78
2023-04-10T11:13:43.350Z,5.50
2023-04-10T11:16:10.954Z,5.70
2023-04-10T11:18:56.160Z,6.43
2023-04-10T11:21:29.808Z,5.70
2023-04-10T11:23:56.527Z,5.80
2023-04-10T11:26:35.404Z,5.75
2023-04-10T11:29:02.539Z,5.88
2023-04-10T11:31:29.381Z,6.35
2023-04-10T11:34:09.054Z,5.70
2023-04-10T11:36:41.165Z,5.55
2023-04-10T11:39:29.170Z,6.00
2023-04-10T11:42:00.709Z,5.70
2023-04-10T11:44:32.051Z,5.40
2023-04-10T11:46:59.016Z,6.00
2023-04-10T11:49:28.161Z,5.78
2023-04-10T11:51:55.581Z,5.50
2023-04-10T11:54:22.282Z,5.78
2023-04-10T11:57:04.978Z,5.43
2023-04-10T11:59:32.406Z,5.60
2023-04-10T12:02:14.469Z,5.97
2023-04-10T12:04:42.250Z,5.63
2023-04-10T12:07:09.626Z,5.45
2023-04-10T12:09:36.691Z,5.43
2023-04-10T12:12:07.152Z,5.53
2023-04-10T12:14:35.024Z,5.57
2023-04-10T12:17:02.337Z,5.80
2023-04-10T12:19:30.323Z,5.25
2023-04-10T12:21:58.413Z,5.13
2023-04-10T12:24:41.642Z,5.68
2023-04-10T12:27:09.018Z,5.30
2023-04-10T12:29:35.739Z,5.43
2023-04-10T12:32:11.390Z,5.63
2023-04-10T12:34:38.271Z,5.10
2023-04-10T12:37:05.195Z,5.75
2023-04-10T12:39:31.973Z,5.72
2023-04-10T12:42:11.616Z,5.75
2023-04-10T12:44:50.412Z,5.45
2023-04-10T12:47:16.985Z,5.28
2023-04-10T12:50:02.378Z,5.72
2023-04-10T12:52:28.899Z,5.63
2023-04-10T12:54:55.750Z,5.50
2023-04-10T12:57:28.012Z,5.93
2023-04-10T13:02:21.948Z,5.53
2023-04-10T13:04:48.992Z,5.35
2023-04-10T13:07:16.126Z,5.13
2023-04-10T13:09:43.091Z,5.80
2023-04-10T13:12:10.117Z,5.68
2023-04-10T13:14:37.619Z,5.63
2023-04-10T13:17:04.339Z,4.95
2023-04-10T13:19:31.291Z,5.53
2023-04-10T13:21:59.879Z,5.15
2023-04-10T13:24:26.630Z,5.45
2023-04-10T13:26:54.195Z,5.20
2023-04-10T13:29:21.045Z,5.38
2023-04-10T13:31:48.120Z,5.72
2023-04-10T13:34:15.111Z,6.00
2023-04-10T13:36:42.052Z,5.88
2023-04-10T13:39:08.956Z,5.38
2023-04-10T13:41:35.774Z,5.63
2023-04-10T13:44:02.520Z,5.68
2023-04-10T13:46:29.537Z,5.30
2023-04-10T13:48:57.292Z,5.38
2023-04-10T13:51:24.223Z,5.70
2023-04-10T13:53:51.279Z,5.28
2023-04-10T13:56:18.231Z,5.60
2023-04-10T13:58:46.412Z,5.82
2023-04-10T14:01:13.764Z,6.18
2023-04-10T14:03:40.903Z,6.20
2023-04-10T14:06:08.099Z,5.43
2023-04-10T14:08:34.941Z,5.82
2023-04-10T14:11:01.491Z,6.15
2023-04-10T14:13:28.035Z,5.90
2023-04-10T14:15:55.095Z,6.10
2023-04-10T14:18:21.913Z,5.47
2023-04-10T14:20:48.676Z,5.75
2023-04-10T14:23:18.705Z,6.05
2023-04-10T14:25:46.066Z,5.65
2023-04-10T14:28:18.193Z,5.88
2023-04-10T14:33:12.352Z,5.28
2023-04-10T14:35:39.419Z,5.63
2023-04-10T14:38:06.232Z,5.88
2023-04-10T14:40:33.481Z,5.57
2023-04-10T14:43:00.139Z,5.38
2023-04-10T14:45:28.108Z,5.63
2023-04-10T14:47:55.246Z,5.35
2023-04-10T14:50:22.268Z,5.40
2023-04-10T14:52:49.777Z,5.85
2023-04-10T14:55:16.736Z,5.78
2023-04-10T14:57:43.586Z,5.72
2023-04-10T15:00:10.708Z,5.32
2023-04-10T15:02:38.767Z,5.38
2023-04-10T15:05:05.874Z,5.57
2023-04-10T15:07:32.720Z,5.50
2023-04-10T15:09:59.580Z,5.63
2023-04-10T15:12:26.834Z,5.38
2023-04-10T15:14:53.780Z,5.93
2023-04-10T15:17:22.287Z,5.63
2023-04-10T15:19:49.422Z,5.80
2023-04-10T15:22:16.372Z,5.95
2023-04-10T15:24:50.130Z,5.35
2023-04-10T15:27:20.198Z,5.60
2023-04-10T15:29:50.043Z,5.55
2023-04-10T15:32:16.569Z,5.15
2023-04-10T15:34:44.337Z,5.35
2023-04-10T15:37:11.874Z,5.80
2023-04-10T15:39:38.672Z,5.00
2023-04-10T15:42:06.241Z,5.25
2023-04-10T15:44:33.368Z,5.30
2023-04-10T15:47:00.137Z,5.72
2023-04-10T15:49:37.212Z,5.78
2023-04-10T15:52:05.584Z,5.68
2023-04-10T15:54:35.386Z,5.78
2023-04-10T15:57:02.470Z,5.90
2023-04-10T15:59:29.420Z,5.30
2023-04-10T16:01:56.352Z,5.57
2023-04-10T16:04:23.769Z,5.78
2023-04-10T16:06:50.690Z,5.15
2023-04-10T16:11:48.127Z,5.70
2023-04-10T16:14:17.585Z,5.88
2023-04-10T16:16:44.422Z,5.07
2023-04-10T16:19:11.268Z,5.43
2023-04-10T16:21:38.068Z,5.68
2023-04-10T16:24:04.875Z,5.53
2023-04-10T16:26:31.519Z,5.50
2023-04-10T16:28:58.767Z,5.40
2023-04-10T16:31:37.974Z,5.30
2023-04-10T16:34:04.743Z,5.15
2023-04-10T16:36:34.721Z,4.95
2023-04-10T16:39:02.792Z,4.80
2023-04-10T16:41:29.542Z,4.80
2023-04-10T16:43:57.716Z,5.00
2023-04-10T16:46:24.503Z,4.95
2023-04-10T16:48:52.181Z,5.18
2023-04-10T16:51:19.022Z,5.07
2023-04-10T16:53:45.684Z,4.97
2023-04-10T16:56:12.584Z,4.78
2023-04-10T16:58:41.229Z,5.40
2023-04-10T17:01:18.382Z,4.57
2023-04-10T17:03:45.658Z,5.10
2023-04-10T17:06:12.293Z,5.10
2023-04-10T17:08:39.008Z,4.90
2023-04-10T17:11:06.029Z,5.57
2023-04-10T17:13:33.273Z,4.95
2023-04-10T17:16:00.266Z,5.15
2023-04-10T17:18:27.855Z,5.13
2023-04-10T17:20:54.548Z,4.90
2023-04-10T17:23:21.589Z,4.80
2023-04-10T17:25:50.288Z,5.10
2023-04-10T17:28:17.199Z,5.25
2023-04-10T17:30:44.107Z,4.75
2023-04-10T17:33:10.832Z,4.85
2023-04-10T17:35:37.768Z,4.85
2023-04-10T17:38:04.610Z,5.00
2023-04-10T17:40:32.160Z,4.90
2023-04-10T17:42:58.808Z,5.07
2023-04-10T17:45:25.542Z,4.85
2023-04-10T17:47:52.159Z,5.10
2023-04-10T17:50:18.986Z,4.93
2023-04-10T17:52:46.259Z,5.00
2023-04-10T17:55:20.565Z,4.90
2023-04-10T17:57:49.189Z,4.68
2023-04-10T18:00:20.664Z,5.00
2023-04-10T18:02:53.256Z,4.65
2023-04-10T18:05:20.033Z,4.85
2023-04-10T18:07:47.391Z,4.88
2023-04-10T18:10:14.602Z,5.15
2023-04-10T18:12:41.879Z,4.35
2023-04-10T18:15:09.623Z,5.40
2023-04-10T18:17:39.183Z,4.85
2023-04-10T18:20:06.569Z,5.38
2023-04-10T18:22:33.226Z,5.15
2023-04-10T18:25:01.104Z,4.53
2023-04-10T18:27:37.320Z,5.35
2023-04-10T18:30:04.336Z,5.15
2023-04-10T18:32:30.977Z,5.63
2023-04-10T18:34:57.888Z,5.57
2023-04-10T18:37:24.636Z,5.60
2023-04-10T18:39:51.517Z,5.53
2023-04-10T18:42:18.118Z,5.18
2023-04-10T18:44:44.806Z,5.75
2023-04-10T18:47:11.607Z,5.60
2023-04-10T18:49:38.677Z,5.38
2023-04-10T18:52:05.581Z,5.50
2023-04-10T18:54:33.504Z,5.40
2023-04-10T18:57:00.248Z,5.43
2023-04-10T18:59:27.299Z,5.57
2023-04-10T19:01:54.168Z,6.05
2023-04-10T19:04:21.078Z,6.30
2023-04-10T19:06:48.002Z,6.05
2023-04-10T19:09:15.013Z,6.15
2023-04-10T19:11:42.806Z,6.60
2023-04-10T19:14:09.623Z,6.28
2023-04-10T19:16:37.527Z,6.63
2023-04-10T19:19:04.363Z,6.50
2023-04-10T19:21:32.121Z,6.68
2023-04-10T19:23:58.905Z,7.03
2023-04-10T19:26:25.686Z,6.78
2023-04-10T19:28:55.325Z,7.22
2023-04-10T19:31:23.748Z,6.78
2023-04-10T19:33:50.757Z,7.40
2023-04-10T19:36:18.149Z,7.13
2023-04-10T19:38:48.770Z,7.18
2023-04-10T19:41:19.143Z,7.57
2023-04-10T19:43:45.903Z,7.72
2023-04-10T19:46:16.694Z,7.05
2023-04-10T19:48:43.559Z,7.20
2023-04-10T19:51:10.510Z,7.63
2023-04-10T19:53:41.460Z,7.38
2023-04-10T19:56:08.370Z,8.02
2023-04-10T19:58:40.486Z,7.82
2023-04-10T20:01:09.041Z,7.70
2023-04-10T20:03:36.992Z,7.68
2023-04-10T20:06:04.303Z,7.90
2023-04-10T20:08:31.019Z,7.18
2023-04-10T20:10:58.445Z,7.85
2023-04-10T20:13:25.619Z,7.60
2023-04-10T20:15:52.434Z,7.75
2023-04-10T20:18:19.177Z,7.25
2023-04-10T20:20:46.004Z,8.02
2023-04-10T20:23:12.717Z,7.70
2023-04-10T20:25:39.416Z,7.47
2023-04-10T20:28:06.388Z,8.13
2023-04-10T20:30:33.115Z,7.72
2023-04-10T20:32:59.739Z,7.88
2023-04-10T20:35:26.840Z,7.97
2023-04-10T20:37:53.770Z,8.20
2023-04-10T20:40:22.759Z,7.90
2023-04-10T20:42:49.618Z,7.78
2023-04-10T20:45:16.479Z,7.57
2023-04-10T20:47:43.177Z,7.88
2023-04-10T20:50:11.484Z,7.68
2023-04-10T20:52:42.225Z,8.57
2023-04-10T20:55:09.215Z,8.25
2023-04-10T20:57:36.069Z,8.65
2023-04-10T21:00:02.784Z,8.30
2023-04-10T21:02:29.715Z,7.80
2023-04-10T21:04:56.790Z,8.20
2023-04-10T21:07:23.524Z,7.93
2023-04-10T21:09:50.422Z,7.90
2023-04-10T21:12:17.161Z,8.07
2023-04-10T21:14:43.988Z,8.23
2023-04-10T21:17:10.862Z,8.10
2023-04-10T21:19:37.926Z,7.70
2023-04-10T21:22:04.561Z,7.82
2023-04-10T21:24:31.402Z,8.00
2023-04-10T21:26:58.263Z,7.82
2023-04-10T21:29:24.977Z,8.50
2023-04-10T21:31:51.833Z,8.20
2023-04-10T21:34:18.504Z,8.10
2023-04-10T21:36:45.442Z,8.43
2023-04-10T21:39:14.552Z,7.90
2023-04-10T21:41:41.165Z,8.30
2023-04-10T21:44:07.939Z,7.85
2023-04-10T21:46:37.355Z,8.50
2023-04-10T21:49:04.302Z,7.75
2023-04-10T21:51:31.558Z,8.13
2023-04-10T21:53:58.416Z,7.55
2023-04-10T21:56:27.822Z,7.68
2023-04-10T21:58:54.974Z,7.78
2023-04-10T22:01:22.359Z,7.93
2023-04-10T22:03:49.471Z,7.80
2023-04-10T22:06:16.449Z,8.02
2023-04-10T22:08:51.074Z,8.25
2023-04-10T22:11:17.923Z,7.75
2023-04-10T22:13:44.981Z,8.35
2023-04-10T22:16:11.734Z,8.23
2023-04-10T22:18:38.470Z,7.88
2023-04-10T22:21:05.213Z,8.10
2023-04-10T22:23:32.172Z,7.45
2023-04-10T22:26:02.100Z,7.95
2023-04-10T22:28:29.457Z,7.70
2023-04-10T22:30:56.215Z,7.72
2023-04-10T22:33:23.049Z,7.40
2023-04-10T22:35:49.795Z,7.95
2023-04-10T22:38:16.333Z,7.85
2023-04-10T22:40:42.921Z,8.15
2023-04-10T22:43:11.259Z,8.18
2023-04-10T22:45:38.213Z,7.78
2023-04-10T22:48:07.936Z,7.45
2023-04-10T22:50:40.098Z,7.18
2023-04-10T22:53:07.263Z,7.80
2023-04-10T22:55:35.176Z,7.57
2023-04-10T22:58:02.816Z,7.63
2023-04-10T23:00:32.936Z,7.78
2023-04-10T23:03:02.788Z,7.93
2023-04-10T23:05:33.379Z,7.72
2023-04-10T23:08:00.480Z,7.30
2023-04-10T23:10:27.328Z,7.40
2023-04-10T23:12:56.257Z,7.00
2023-04-10T23:15:29.511Z,7.45
2023-04-10T23:17:56.480Z,7.43
2023-04-10T23:20:23.428Z,7.25
2023-04-10T23:22:51.033Z,7.20
2023-04-10T23:25:17.786Z,7.07
2023-04-10T23:27:47.555Z,7.40
2023-04-10T23:30:23.679Z,7.32
2023-04-10T23:32:51.346Z,7.38
2023-04-10T23:35:18.601Z,7.15
2023-04-10T23:37:45.445Z,7.25
2023-04-10T23:40:12.801Z,7.38
2023-04-10T23:42:39.854Z,7.53
2023-04-10T23:45:07.013Z,7.30
2023-04-10T23:47:34.185Z,7.22
2023-04-10T23:50:01.223Z,7.15
2023-04-10T23:52:28.119Z,6.50
2023-04-10T23:54:57.953Z,7.50
2023-04-10T23:57:24.848Z,7.97
2023-04-10T23:59:52.607Z,7.28
